sensor_id;sensor_type;location;lat;lon;timestamp;temperature;humidity
15298;DHT22;7750;48.796;9.026;2022-07-23T00:02:28;27.90;50.70
15298;DHT22;7750;48.796;9.026;2022-07-23T00:07:29;27.80;50.60
15298;DHT22;7750;48.796;9.026;2022-07-23T00:12:30;27.80;50.80
15298;DHT22;7750;48.796;9.026;2022-07-23T00:17:31;27.70;50.80
15298;DHT22;7750;48.796;9.026;2022-07-23T00:22:31;27.70;50.90
15298;DHT22;7750;48.796;9.026;2022-07-23T00:27:32;27.60;51.10
15298;DHT22;7750;48.796;9.026;2022-07-23T00:32:44;27.50;51.20
15298;DHT22;7750;48.796;9.026;2022-07-23T00:37:45;27.50;51.50
15298;DHT22;7750;48.796;9.026;2022-07-23T00:42:45;27.40;51.50
15298;DHT22;7750;48.796;9.026;2022-07-23T00:47:47;27.30;51.60
15298;DHT22;7750;48.796;9.026;2022-07-23T00:52:48;27.30;52.00
15298;DHT22;7750;48.796;9.026;2022-07-23T00:57:50;27.20;51.90
15298;DHT22;7750;48.796;9.026;2022-07-23T01:02:50;27.20;52.10
15298;DHT22;7750;48.796;9.026;2022-07-23T01:07:52;27.00;52.20
15298;DHT22;7750;48.796;9.026;2022-07-23T01:12:52;27.00;52.50
15298;DHT22;7750;48.796;9.026;2022-07-23T01:17:53;26.90;52.50
15298;DHT22;7750;48.796;9.026;2022-07-23T01:22:54;26.90;52.60
15298;DHT22;7750;48.796;9.026;2022-07-23T01:27:54;26.80;53.10
15298;DHT22;7750;48.796;9.026;2022-07-23T01:32:55;26.80;52.80
15298;DHT22;7750;48.796;9.026;2022-07-23T01:37:56;26.80;52.90
15298;DHT22;7750;48.796;9.026;2022-07-23T01:42:57;26.70;52.80
15298;DHT22;7750;48.796;9.026;2022-07-23T01:47:58;26.70;52.80
15298;DHT22;7750;48.796;9.026;2022-07-23T01:52:58;26.70;52.80
15298;DHT22;7750;48.796;9.026;2022-07-23T01:57:59;26.70;52.90
15298;DHT22;7750;48.796;9.026;2022-07-23T02:03:02;26.70;52.80
15298;DHT22;7750;48.796;9.026;2022-07-23T02:08:03;26.70;53.20
15298;DHT22;7750;48.796;9.026;2022-07-23T02:13:04;26.60;53.00
15298;DHT22;7750;48.796;9.026;2022-07-23T02:18:05;26.50;53.30
15298;DHT22;7750;48.796;9.026;2022-07-23T02:23:06;26.50;53.30
15298;DHT22;7750;48.796;9.026;2022-07-23T02:28:07;26.50;53.40
15298;DHT22;7750;48.796;9.026;2022-07-23T02:33:07;26.50;53.70
15298;DHT22;7750;48.796;9.026;2022-07-23T02:38:08;26.40;53.60
15298;DHT22;7750;48.796;9.026;2022-07-23T02:43:09;26.30;53.80
15298;DHT22;7750;48.796;9.026;2022-07-23T02:48:09;26.20;53.90
15298;DHT22;7750;48.796;9.026;2022-07-23T02:53:12;26.10;54.10
15298;DHT22;7750;48.796;9.026;2022-07-23T02:58:13;26.00;54.80
15298;DHT22;7750;48.796;9.026;2022-07-23T03:03:14;25.90;54.90
15298;DHT22;7750;48.796;9.026;2022-07-23T03:08:14;25.80;55.10
15298;DHT22;7750;48.796;9.026;2022-07-23T03:13:15;25.70;55.20
15298;DHT22;7750;48.796;9.026;2022-07-23T03:18:16;25.60;55.40
15298;DHT22;7750;48.796;9.026;2022-07-23T03:23:16;25.60;55.90
15298;DHT22;7750;48.796;9.026;2022-07-23T03:28:18;25.50;55.70
15298;DHT22;7750;48.796;9.026;2022-07-23T03:33:20;25.50;55.90
15298;DHT22;7750;48.796;9.026;2022-07-23T03:38:21;25.50;55.90
15298;DHT22;7750;48.796;9.026;2022-07-23T03:43:22;25.50;55.90
15298;DHT22;7750;48.796;9.026;2022-07-23T03:48:24;25.50;55.70
15298;DHT22;7750;48.796;9.026;2022-07-23T03:53:25;25.50;55.70
15298;DHT22;7750;48.796;9.026;2022-07-23T03:58:26;25.40;55.60
15298;DHT22;7750;48.796;9.026;2022-07-23T04:03:26;25.50;55.70
15298;DHT22;7750;48.796;9.026;2022-07-23T04:08:27;25.50;55.90
15298;DHT22;7750;48.796;9.026;2022-07-23T04:13:28;25.50;55.80
15298;DHT22;7750;48.796;9.026;2022-07-23T04:18:28;25.50;55.90
15298;DHT22;7750;48.796;9.026;2022-07-23T04:23:29;25.50;55.90
15298;DHT22;7750;48.796;9.026;2022-07-23T04:28:30;25.50;56.00
15298;DHT22;7750;48.796;9.026;2022-07-23T04:33:30;25.50;56.10
15298;DHT22;7750;48.796;9.026;2022-07-23T04:38:31;25.50;56.10
15298;DHT22;7750;48.796;9.026;2022-07-23T04:43:32;25.60;56.00
15298;DHT22;7750;48.796;9.026;2022-07-23T04:48:33;25.50;55.80
15298;DHT22;7750;48.796;9.026;2022-07-23T04:53:34;25.60;55.90
15298;DHT22;7750;48.796;9.026;2022-07-23T04:58:34;25.60;56.00
15298;DHT22;7750;48.796;9.026;2022-07-23T05:03:35;25.60;56.00
15298;DHT22;7750;48.796;9.026;2022-07-23T05:08:36;25.60;55.90
15298;DHT22;7750;48.796;9.026;2022-07-23T05:13:36;25.70;55.90
15298;DHT22;7750;48.796;9.026;2022-07-23T05:18:37;25.70;56.00
15298;DHT22;7750;48.796;9.026;2022-07-23T05:23:37;25.70;56.00
15298;DHT22;7750;48.796;9.026;2022-07-23T05:28:38;25.80;56.30
15298;DHT22;7750;48.796;9.026;2022-07-23T05:33:39;25.80;56.30
15298;DHT22;7750;48.796;9.026;2022-07-23T05:38:40;25.80;56.20
15298;DHT22;7750;48.796;9.026;2022-07-23T05:43:40;25.90;56.20
15298;DHT22;7750;48.796;9.026;2022-07-23T05:48:41;25.90;56.20
15298;DHT22;7750;48.796;9.026;2022-07-23T05:53:42;25.90;56.30
15298;DHT22;7750;48.796;9.026;2022-07-23T05:58:43;25.90;56.30
15298;DHT22;7750;48.796;9.026;2022-07-23T06:03:44;26.00;56.60
15298;DHT22;7750;48.796;9.026;2022-07-23T06:08:44;26.10;56.80
15298;DHT22;7750;48.796;9.026;2022-07-23T06:13:45;26.10;56.80
15298;DHT22;7750;48.796;9.026;2022-07-23T06:18:45;26.20;56.80
15298;DHT22;7750;48.796;9.026;2022-07-23T06:23:46;26.20;56.80
15298;DHT22;7750;48.796;9.026;2022-07-23T06:28:47;26.40;56.80
15298;DHT22;7750;48.796;9.026;2022-07-23T06:33:47;26.50;56.90
15298;DHT22;7750;48.796;9.026;2022-07-23T06:38:48;26.70;56.50
15298;DHT22;7750;48.796;9.026;2022-07-23T06:43:49;26.90;55.90
15298;DHT22;7750;48.796;9.026;2022-07-23T06:48:50;27.00;55.90
15298;DHT22;7750;48.796;9.026;2022-07-23T06:53:50;27.10;55.40
15298;DHT22;7750;48.796;9.026;2022-07-23T06:58:51;27.00;55.50
15298;DHT22;7750;48.796;9.026;2022-07-23T07:03:52;26.90;55.30
15298;DHT22;7750;48.796;9.026;2022-07-23T07:08:53;26.80;55.30
15298;DHT22;7750;48.796;9.026;2022-07-23T07:13:53;26.70;55.60
15298;DHT22;7750;48.796;9.026;2022-07-23T07:18:54;26.60;55.90
15298;DHT22;7750;48.796;9.026;2022-07-23T07:23:54;26.50;56.80
15298;DHT22;7750;48.796;9.026;2022-07-23T07:28:55;26.40;57.90
15298;DHT22;7750;48.796;9.026;2022-07-23T07:33:56;26.30;58.90
15298;DHT22;7750;48.796;9.026;2022-07-23T07:38:57;26.30;59.20
15298;DHT22;7750;48.796;9.026;2022-07-23T07:43:57;26.30;59.50
15298;DHT22;7750;48.796;9.026;2022-07-23T07:48:58;26.40;59.50
15298;DHT22;7750;48.796;9.026;2022-07-23T07:53:59;26.50;59.20
15298;DHT22;7750;48.796;9.026;2022-07-23T07:58:59;26.50;58.60
15298;DHT22;7750;48.796;9.026;2022-07-23T08:04:01;26.40;58.80
15298;DHT22;7750;48.796;9.026;2022-07-23T08:09:02;26.30;59.10
15298;DHT22;7750;48.796;9.026;2022-07-23T08:14:02;26.30;58.40
15298;DHT22;7750;48.796;9.026;2022-07-23T08:19:03;26.30;58.30
15298;DHT22;7750;48.796;9.026;2022-07-23T08:24:04;26.30;58.60
15298;DHT22;7750;48.796;9.026;2022-07-23T08:29:04;26.30;59.10
15298;DHT22;7750;48.796;9.026;2022-07-23T08:34:05;26.60;59.50
15298;DHT22;7750;48.796;9.026;2022-07-23T08:39:06;27.00;58.60
15298;DHT22;7750;48.796;9.026;2022-07-23T08:44:08;27.50;58.40
15298;DHT22;7750;48.796;9.026;2022-07-23T08:49:09;28.00;57.10
15298;DHT22;7750;48.796;9.026;2022-07-23T08:54:11;28.30;55.80
15298;DHT22;7750;48.796;9.026;2022-07-23T08:59:12;28.50;55.10
15298;DHT22;7750;48.796;9.026;2022-07-23T09:04:13;29.20;51.80
15298;DHT22;7750;48.796;9.026;2022-07-23T09:09:19;29.10;53.70
15298;DHT22;7750;48.796;9.026;2022-07-23T09:14:36;29.00;52.80
15298;DHT22;7750;48.796;9.026;2022-07-23T09:19:37;29.00;53.10
15298;DHT22;7750;48.796;9.026;2022-07-23T09:24:38;29.00;52.80
15298;DHT22;7750;48.796;9.026;2022-07-23T09:29:58;29.00;53.20
15298;DHT22;7750;48.796;9.026;2022-07-23T09:34:59;29.10;53.70
15298;DHT22;7750;48.796;9.026;2022-07-23T09:40:09;29.30;52.80
15298;DHT22;7750;48.796;9.026;2022-07-23T09:45:21;29.40;53.00
15298;DHT22;7750;48.796;9.026;2022-07-23T09:50:21;29.70;52.80
15298;DHT22;7750;48.796;9.026;2022-07-23T09:55:34;29.90;51.90
15298;DHT22;7750;48.796;9.026;2022-07-23T10:00:36;30.10;50.20
15298;DHT22;7750;48.796;9.026;2022-07-23T10:05:41;30.30;51.40
15298;DHT22;7750;48.796;9.026;2022-07-23T10:10:46;30.50;51.60
15298;DHT22;7750;48.796;9.026;2022-07-23T10:15:47;30.70;51.00
15298;DHT22;7750;48.796;9.026;2022-07-23T10:20:48;30.80;50.80
15298;DHT22;7750;48.796;9.026;2022-07-23T10:26:29;31.00;50.80
15298;DHT22;7750;48.796;9.026;2022-07-23T10:31:56;31.20;49.80
15298;DHT22;7750;48.796;9.026;2022-07-23T10:42:14;31.50;50.00
15298;DHT22;7750;48.796;9.026;2022-07-23T10:47:27;31.70;48.90
15298;DHT22;7750;48.796;9.026;2022-07-23T10:58:09;32.10;48.60
15298;DHT22;7750;48.796;9.026;2022-07-23T11:03:33;32.70;44.80
15298;DHT22;7750;48.796;9.026;2022-07-23T11:08:36;32.60;45.00
15298;DHT22;7750;48.796;9.026;2022-07-23T11:13:44;32.60;46.70
15298;DHT22;7750;48.796;9.026;2022-07-23T11:18:55;32.70;46.20
15298;DHT22;7750;48.796;9.026;2022-07-23T11:24:17;32.80;45.90
15298;DHT22;7750;48.796;9.026;2022-07-23T11:34:52;32.60;44.90
15298;DHT22;7750;48.796;9.026;2022-07-23T11:40:09;32.60;45.50
15298;DHT22;7750;48.796;9.026;2022-07-23T11:45:10;32.70;45.80
15298;DHT22;7750;48.796;9.026;2022-07-23T11:50:11;32.80;45.10
15298;DHT22;7750;48.796;9.026;2022-07-23T11:55:12;32.90;45.40
15298;DHT22;7750;48.796;9.026;2022-07-23T12:00:18;33.10;45.70
15298;DHT22;7750;48.796;9.026;2022-07-23T12:05:22;33.20;45.20
15298;DHT22;7750;48.796;9.026;2022-07-23T12:15:37;33.40;45.20
15298;DHT22;7750;48.796;9.026;2022-07-23T12:20:48;33.60;44.70
15298;DHT22;7750;48.796;9.026;2022-07-23T12:25:50;33.60;44.90
15298;DHT22;7750;48.796;9.026;2022-07-23T12:31:02;33.50;44.60
15298;DHT22;7750;48.796;9.026;2022-07-23T12:36:10;33.40;44.70
15298;DHT22;7750;48.796;9.026;2022-07-23T12:52:50;33.20;44.20
15298;DHT22;7750;48.796;9.026;2022-07-23T12:58:13;33.10;44.10
15298;DHT22;7750;48.796;9.026;2022-07-23T13:03:40;33.00;43.80
15298;DHT22;7750;48.796;9.026;2022-07-23T13:08:40;32.90;44.40
15298;DHT22;7750;48.796;9.026;2022-07-23T13:13:48;32.80;44.30
15298;DHT22;7750;48.796;9.026;2022-07-23T13:18:49;32.80;44.20
15298;DHT22;7750;48.796;9.026;2022-07-23T13:23:50;32.80;44.40
15298;DHT22;7750;48.796;9.026;2022-07-23T13:28:50;33.00;44.50
15298;DHT22;7750;48.796;9.026;2022-07-23T13:33:51;33.10;45.30
15298;DHT22;7750;48.796;9.026;2022-07-23T13:38:52;33.30;43.80
15298;DHT22;7750;48.796;9.026;2022-07-23T13:43:52;33.60;43.90
15298;DHT22;7750;48.796;9.026;2022-07-23T13:48:53;33.70;43.00
15298;DHT22;7750;48.796;9.026;2022-07-23T13:53:54;33.80;42.80
15298;DHT22;7750;48.796;9.026;2022-07-23T13:58:55;33.90;43.00
15298;DHT22;7750;48.796;9.026;2022-07-23T14:03:55;34.00;42.50
15298;DHT22;7750;48.796;9.026;2022-07-23T14:08:56;34.20;41.60
15298;DHT22;7750;48.796;9.026;2022-07-23T14:13:57;34.30;41.50
15298;DHT22;7750;48.796;9.026;2022-07-23T14:18:59;34.40;41.60
15298;DHT22;7750;48.796;9.026;2022-07-23T14:30:08;34.70;42.00
15298;DHT22;7750;48.796;9.026;2022-07-23T14:35:15;34.90;41.00
15298;DHT22;7750;48.796;9.026;2022-07-23T14:40:16;35.00;40.50
15298;DHT22;7750;48.796;9.026;2022-07-23T14:45:23;35.00;40.00
15298;DHT22;7750;48.796;9.026;2022-07-23T14:55:25;34.90;40.20
15298;DHT22;7750;48.796;9.026;2022-07-23T15:00:26;34.90;40.30
15298;DHT22;7750;48.796;9.026;2022-07-23T15:05:45;34.90;40.80
15298;DHT22;7750;48.796;9.026;2022-07-23T15:10:46;35.00;40.80
15298;DHT22;7750;48.796;9.026;2022-07-23T15:15:46;34.90;40.60
15298;DHT22;7750;48.796;9.026;2022-07-23T15:20:53;35.00;40.90
15298;DHT22;7750;48.796;9.026;2022-07-23T15:26:01;35.20;40.50
15298;DHT22;7750;48.796;9.026;2022-07-23T15:31:02;35.10;40.40
15298;DHT22;7750;48.796;9.026;2022-07-23T15:36:03;35.20;40.60
15298;DHT22;7750;48.796;9.026;2022-07-23T15:41:04;35.10;39.90
15298;DHT22;7750;48.796;9.026;2022-07-23T15:46:08;35.00;39.90
15298;DHT22;7750;48.796;9.026;2022-07-23T15:51:09;34.90;41.10
15298;DHT22;7750;48.796;9.026;2022-07-23T15:56:19;34.80;40.20
15298;DHT22;7750;48.796;9.026;2022-07-23T16:01:27;34.60;39.70
15298;DHT22;7750;48.796;9.026;2022-07-23T16:06:35;34.40;40.30
15298;DHT22;7750;48.796;9.026;2022-07-23T16:11:36;34.20;40.40
15298;DHT22;7750;48.796;9.026;2022-07-23T16:16:40;34.10;40.70
15298;DHT22;7750;48.796;9.026;2022-07-23T16:21:41;34.00;41.10
15298;DHT22;7750;48.796;9.026;2022-07-23T16:26:42;34.00;41.20
15298;DHT22;7750;48.796;9.026;2022-07-23T16:31:47;33.80;41.40
15298;DHT22;7750;48.796;9.026;2022-07-23T16:36:48;33.60;41.60
15298;DHT22;7750;48.796;9.026;2022-07-23T16:41:48;33.40;41.80
15298;DHT22;7750;48.796;9.026;2022-07-23T16:46:49;33.30;42.30
15298;DHT22;7750;48.796;9.026;2022-07-23T16:51:50;33.20;42.50
15298;DHT22;7750;48.796;9.026;2022-07-23T16:56:50;33.10;42.70
15298;DHT22;7750;48.796;9.026;2022-07-23T17:01:51;33.00;42.60
15298;DHT22;7750;48.796;9.026;2022-07-23T17:06:52;32.80;43.00
15298;DHT22;7750;48.796;9.026;2022-07-23T17:11:53;32.70;43.30
15298;DHT22;7750;48.796;9.026;2022-07-23T17:16:54;32.50;43.60
15298;DHT22;7750;48.796;9.026;2022-07-23T17:21:54;32.30;44.30
15298;DHT22;7750;48.796;9.026;2022-07-23T17:26:55;32.20;44.00
15298;DHT22;7750;48.796;9.026;2022-07-23T17:31:56;32.10;44.70
15298;DHT22;7750;48.796;9.026;2022-07-23T17:36:57;32.00;45.00
15298;DHT22;7750;48.796;9.026;2022-07-23T17:41:58;31.90;45.40
15298;DHT22;7750;48.796;9.026;2022-07-23T17:46:58;31.90;45.50
15298;DHT22;7750;48.796;9.026;2022-07-23T17:52:03;31.80;45.60
15298;DHT22;7750;48.796;9.026;2022-07-23T17:57:04;31.70;45.70
15298;DHT22;7750;48.796;9.026;2022-07-23T18:02:05;31.60;45.80
15298;DHT22;7750;48.796;9.026;2022-07-23T18:07:06;31.50;46.20
15298;DHT22;7750;48.796;9.026;2022-07-23T18:12:07;31.40;46.40
15298;DHT22;7750;48.796;9.026;2022-07-23T18:17:07;31.30;46.30
15298;DHT22;7750;48.796;9.026;2022-07-23T18:22:08;31.30;46.60
15298;DHT22;7750;48.796;9.026;2022-07-23T18:27:09;31.20;46.60
15298;DHT22;7750;48.796;9.026;2022-07-23T18:32:10;31.00;46.80
15298;DHT22;7750;48.796;9.026;2022-07-23T18:37:10;31.00;47.10
15298;DHT22;7750;48.796;9.026;2022-07-23T18:42:11;30.90;47.10
15298;DHT22;7750;48.796;9.026;2022-07-23T18:47:12;30.90;47.50
15298;DHT22;7750;48.796;9.026;2022-07-23T18:52:12;30.80;47.50
15298;DHT22;7750;48.796;9.026;2022-07-23T18:57:13;30.70;47.60
15298;DHT22;7750;48.796;9.026;2022-07-23T19:02:14;30.70;47.80
15298;DHT22;7750;48.796;9.026;2022-07-23T19:07:15;30.60;48.00
15298;DHT22;7750;48.796;9.026;2022-07-23T19:12:16;30.60;48.30
15298;DHT22;7750;48.796;9.026;2022-07-23T19:17:16;30.60;48.30
15298;DHT22;7750;48.796;9.026;2022-07-23T19:22:17;30.50;48.40
15298;DHT22;7750;48.796;9.026;2022-07-23T19:27:18;30.40;48.60
15298;DHT22;7750;48.796;9.026;2022-07-23T19:32:19;30.30;48.70
15298;DHT22;7750;48.796;9.026;2022-07-23T19:37:19;30.20;48.80
15298;DHT22;7750;48.796;9.026;2022-07-23T19:42:21;30.10;49.10
15298;DHT22;7750;48.796;9.026;2022-07-23T19:47:21;30.00;49.20
15298;DHT22;7750;48.796;9.026;2022-07-23T19:52:23;29.90;49.20
15298;DHT22;7750;48.796;9.026;2022-07-23T19:57:24;29.90;49.50
15298;DHT22;7750;48.796;9.026;2022-07-23T20:02:24;29.80;49.60
15298;DHT22;7750;48.796;9.026;2022-07-23T20:07:25;29.80;49.90
15298;DHT22;7750;48.796;9.026;2022-07-23T20:12:25;29.70;50.00
15298;DHT22;7750;48.796;9.026;2022-07-23T20:17:26;29.60;50.00
15298;DHT22;7750;48.796;9.026;2022-07-23T20:22:27;29.50;50.40
15298;DHT22;7750;48.796;9.026;2022-07-23T20:27:28;29.50;50.50
15298;DHT22;7750;48.796;9.026;2022-07-23T20:32:28;29.30;50.50
15298;DHT22;7750;48.796;9.026;2022-07-23T20:37:29;29.20;50.80
15298;DHT22;7750;48.796;9.026;2022-07-23T20:42:29;29.10;50.90
15298;DHT22;7750;48.796;9.026;2022-07-23T20:47:30;29.10;51.20
15298;DHT22;7750;48.796;9.026;2022-07-23T20:52:31;29.00;51.40
15298;DHT22;7750;48.796;9.026;2022-07-23T20:57:31;28.90;51.60
15298;DHT22;7750;48.796;9.026;2022-07-23T21:02:32;28.90;51.90
15298;DHT22;7750;48.796;9.026;2022-07-23T21:07:33;28.80;52.20
15298;DHT22;7750;48.796;9.026;2022-07-23T21:12:34;28.80;52.30
15298;DHT22;7750;48.796;9.026;2022-07-23T21:17:34;28.70;52.40
15298;DHT22;7750;48.796;9.026;2022-07-23T21:22:35;28.70;52.50
15298;DHT22;7750;48.796;9.026;2022-07-23T21:27:36;28.60;52.50
15298;DHT22;7750;48.796;9.026;2022-07-23T21:32:37;28.60;52.50
15298;DHT22;7750;48.796;9.026;2022-07-23T21:37:38;28.50;52.40
15298;DHT22;7750;48.796;9.026;2022-07-23T21:42:38;28.40;52.60
15298;DHT22;7750;48.796;9.026;2022-07-23T21:47:39;28.40;52.70
15298;DHT22;7750;48.796;9.026;2022-07-23T21:52:40;28.30;52.80
15298;DHT22;7750;48.796;9.026;2022-07-23T21:57:41;28.20;52.90
15298;DHT22;7750;48.796;9.026;2022-07-23T22:02:44;28.10;53.00
15298;DHT22;7750;48.796;9.026;2022-07-23T22:07:45;28.00;53.30
15298;DHT22;7750;48.796;9.026;2022-07-23T22:12:47;28.00;53.30
15298;DHT22;7750;48.796;9.026;2022-07-23T22:17:48;27.80;53.60
15298;DHT22;7750;48.796;9.026;2022-07-23T22:22:49;27.80;53.90
15298;DHT22;7750;48.796;9.026;2022-07-23T22:27:50;27.70;54.00
15298;DHT22;7750;48.796;9.026;2022-07-23T22:32:51;27.60;54.10
15298;DHT22;7750;48.796;9.026;2022-07-23T22:37:52;27.50;54.20
15298;DHT22;7750;48.796;9.026;2022-07-23T22:42:53;27.50;54.50
15298;DHT22;7750;48.796;9.026;2022-07-23T22:47:53;27.40;54.50
15298;DHT22;7750;48.796;9.026;2022-07-23T22:52:54;27.30;54.70
15298;DHT22;7750;48.796;9.026;2022-07-23T22:57:54;27.20;54.60
15298;DHT22;7750;48.796;9.026;2022-07-23T23:02:55;27.10;54.70
15298;DHT22;7750;48.796;9.026;2022-07-23T23:07:56;27.00;54.80
15298;DHT22;7750;48.796;9.026;2022-07-23T23:12:56;26.90;54.70
15298;DHT22;7750;48.796;9.026;2022-07-23T23:17:57;26.80;54.90
15298;DHT22;7750;48.796;9.026;2022-07-23T23:22:57;26.70;55.10
15298;DHT22;7750;48.796;9.026;2022-07-23T23:27:58;26.60;55.20
15298;DHT22;7750;48.796;9.026;2022-07-23T23:32:59;26.50;55.30
15298;DHT22;7750;48.796;9.026;2022-07-23T23:38:00;26.50;55.40
15298;DHT22;7750;48.796;9.026;2022-07-23T23:43:00;26.40;55.70
15298;DHT22;7750;48.796;9.026;2022-07-23T23:48:01;26.30;55.80
15298;DHT22;7750;48.796;9.026;2022-07-23T23:53:01;26.20;56.00
15298;DHT22;7750;48.796;9.026;2022-07-23T23:58:02;26.10;56.00
